Time;durP1;ratioP1;P1;durP2;ratioP2;P2;SDS_P1;SDS_P2;PMS_P1;PMS_P2;Temp;Humidity;BMP_temperature;BMP_pressure;BME280_temperature;BME280_humidity;BME280_pressure;Samples;Min_cycle;Max_cycle;Signal;HPM_P1;HPM_P2
2022/11/29 00:01:29;;;;;;;22.80;13.70;;;8.90;1.00;;;;;;4955545;28;20445;-84
2022/11/29 00:03:54;;;;;;;28.13;13.77;;;8.90;1.00;;;;;;4942048;29;20447;-83
2022/11/29 00:06:22;;;;;;;22.07;15.27;;;8.90;1.00;;;;;;4954143;28;20468;-86
2022/11/29 00:08:48;;;;;;;22.50;13.97;;;8.90;1.00;;;;;;4951806;28;20275;-83
2022/11/29 00:12:10;;;;;;;19.80;13.33;;;8.90;1.00;;;;;;4957146;28;20451;-82
2022/11/29 00:14:03;;;;;;;25.03;14.97;;;9.00;1.00;;;;;;4956589;28;20464;-84
2022/11/29 00:16:28;;;;;;;23.60;14.60;;;9.00;1.00;;;;;;4942336;28;20459;-83
2022/11/29 00:18:54;;;;;;;23.20;13.73;;;9.00;1.00;;;;;;4957167;28;20826;-83
2022/11/29 00:21:19;;;;;;;28.13;14.27;;;9.00;1.00;;;;;;4956271;28;20207;-84
2022/11/29 00:23:45;;;;;;;23.10;14.40;;;9.10;1.00;;;;;;4955154;28;20196;-83
2022/11/29 00:26:10;;;;;;;24.60;14.43;;;9.10;1.00;;;;;;4956659;28;20216;-83
2022/11/29 00:28:36;;;;;;;27.70;14.20;;;9.10;1.00;;;;;;4952520;28;20213;-84
2022/11/29 00:31:25;;;;;;;19.53;12.77;;;9.10;1.00;;;;;;4955561;28;20205;-83
2022/11/29 00:33:51;;;;;;;20.13;13.80;;;9.10;1.00;;;;;;4953758;28;20433;-84
2022/11/29 00:36:17;;;;;;;21.90;14.20;;;9.10;1.00;;;;;;4955442;28;20456;-83
2022/11/29 00:38:43;;;;;;;19.90;12.90;;;9.20;1.00;;;;;;4955481;28;20448;-84
2022/11/29 00:41:10;;;;;;;28.23;14.40;;;9.10;1.00;;;;;;4956711;28;20855;-83
2022/11/29 00:43:36;;;;;;;27.80;13.45;;;9.10;1.00;;;;;;4951985;28;20197;-84
2022/11/29 00:46:02;;;;;;;24.10;14.00;;;9.10;1.00;;;;;;4953544;28;20213;-84
2022/11/29 00:48:29;;;;;;;28.93;13.97;;;9.10;1.00;;;;;;4955709;28;20464;-83
2022/11/29 00:50:54;;;;;;;25.10;13.17;;;9.10;1.00;;;;;;4954978;28;20798;-84
2022/11/29 00:53:19;;;;;;;27.10;14.30;;;9.20;1.00;;;;;;4957006;28;20440;-85
2022/11/29 00:55:50;;;;;;;21.93;13.80;;;9.20;1.00;;;;;;4954044;28;20219;-83
2022/11/29 00:58:15;;;;;;;22.00;14.60;;;9.20;1.00;;;;;;4957016;28;20559;-82
2022/11/29 01:00:41;;;;;;;22.33;14.93;;;9.20;1.00;;;;;;4956215;28;20445;-83
2022/11/29 01:03:06;;;;;;;24.30;14.57;;;9.20;1.00;;;;;;4953469;28;20658;-84
2022/11/29 01:05:32;;;;;;;29.53;14.40;;;9.20;1.00;;;;;;4954269;28;20209;-84
2022/11/29 01:07:58;;;;;;;26.20;13.97;;;9.20;1.00;;;;;;4957683;28;20248;-82
2022/11/29 01:10:23;;;;;;;22.57;14.70;;;9.20;1.00;;;;;;4954786;28;20185;-84
2022/11/29 01:12:49;;;;;;;27.87;14.40;;;9.20;1.00;;;;;;4957035;28;20211;-84
2022/11/29 01:15:15;;;;;;;26.23;14.47;;;9.20;1.00;;;;;;4941932;28;20204;-83
2022/11/29 01:17:41;;;;;;;30.03;14.80;;;9.20;1.00;;;;;;4964995;28;20162;-82
2022/11/29 01:20:08;;;;;;;24.90;14.00;;;9.30;1.00;;;;;;4965828;29;20439;-83
2022/11/29 01:22:34;;;;;;;33.27;16.00;;;9.30;1.00;;;;;;4966005;28;20595;-82
2022/11/29 01:25:00;;;;;;;25.73;14.60;;;9.30;1.00;;;;;;4951418;28;20825;-83
2022/11/29 01:27:26;;;;;;;29.00;15.27;;;9.20;1.00;;;;;;4950825;28;20460;-83
2022/11/29 01:29:51;;;;;;;20.97;15.70;;;9.30;1.00;;;;;;4951118;28;20203;-83
2022/11/29 01:32:17;;;;;;;28.33;15.67;;;9.20;1.00;;;;;;4953229;29;20216;-82
2022/11/29 01:34:42;;;;;;;29.80;16.90;;;9.20;1.00;;;;;;4950796;28;20250;-81
2022/11/29 01:37:08;;;;;;;28.30;15.20;;;9.20;1.00;;;;;;4949896;28;20189;-81
2022/11/29 01:39:33;;;;;;;27.43;16.83;;;9.20;1.00;;;;;;4952544;28;20215;-82
2022/11/29 01:41:59;;;;;;;25.83;15.20;;;9.20;1.00;;;;;;4949381;28;20569;-83
2022/11/29 01:44:25;;;;;;;28.10;14.97;;;9.20;1.00;;;;;;4948595;28;20251;-82
2022/11/29 01:46:52;;;;;;;26.53;15.83;;;9.20;1.00;;;;;;4952862;28;21256;-82
2022/11/29 01:49:24;;;;;;;32.20;16.80;;;9.20;1.00;;;;;;4951977;28;20240;-82
2022/11/29 01:51:53;;;;;;;30.33;15.00;;;9.10;1.00;;;;;;4951398;29;20468;-83
2022/11/29 01:54:20;;;;;;;29.37;15.17;;;9.10;1.00;;;;;;4949774;28;20502;-82
2022/11/29 01:56:48;;;;;;;31.50;15.87;;;9.10;1.00;;;;;;4953552;29;21185;-83
2022/11/29 01:59:17;;;;;;;22.33;15.10;;;9.20;1.00;;;;;;4948688;28;20530;-83
2022/11/29 02:01:43;;;;;;;23.73;15.30;;;9.10;1.00;;;;;;4951380;29;20432;-82
2022/11/29 02:04:08;;;;;;;29.03;15.40;;;9.20;1.00;;;;;;4937069;28;20443;-83
2022/11/29 02:06:35;;;;;;;26.37;16.33;;;9.20;1.00;;;;;;4954767;28;20203;-82
2022/11/29 02:09:00;;;;;;;22.53;15.67;;;9.20;1.00;;;;;;4954932;28;20216;-83
2022/11/29 02:11:57;;;;;;;26.40;15.70;;;9.20;1.00;;;;;;4939903;28;20443;-83
2022/11/29 02:14:47;;;;;;;18.80;14.87;;;9.20;1.00;;;;;;4952887;28;20324;-82
2022/11/29 02:17:50;;;;;;;30.67;16.77;;;9.20;1.00;;;;;;4951577;28;20432;-82
2022/11/29 02:20:34;;;;;;;29.40;16.07;;;9.20;1.00;;;;;;4952312;28;20818;-83
2022/11/29 02:23:09;;;;;;;28.60;16.47;;;9.20;1.00;;;;;;4953585;28;20584;-83
2022/11/29 02:25:55;;;;;;;27.80;16.20;;;9.20;1.00;;;;;;4953397;28;20460;-83
2022/11/29 02:29:01;;;;;;;28.47;16.90;;;9.20;1.00;;;;;;4952657;28;20472;-82
2022/11/29 02:31:44;;;;;;;26.50;14.07;;;9.20;1.00;;;;;;4950537;28;20452;-83
2022/11/29 02:34:18;;;;;;;30.07;15.97;;;9.20;1.00;;;;;;4950866;28;20799;-82
2022/11/29 02:37:02;;;;;;;24.13;15.13;;;9.20;1.00;;;;;;4951016;28;20799;-84
2022/11/29 02:39:55;;;;;;;30.33;16.13;;;9.30;1.00;;;;;;4953569;28;20432;-82
2022/11/29 02:42:30;;;;;;;28.30;15.90;;;9.30;1.00;;;;;;4953179;28;20448;-84
2022/11/29 02:45:22;;;;;;;24.83;15.80;;;9.30;1.00;;;;;;4954880;28;20459;-83
2022/11/29 02:48:06;;;;;;;44.47;16.77;;;9.30;1.00;;;;;;4951418;28;20475;-83
2022/11/29 02:50:41;;;;;;;34.93;17.63;;;9.30;1.00;;;;;;4952853;28;21031;-82
2022/11/29 02:53:31;;;;;;;36.37;17.07;;;9.40;1.00;;;;;;4953490;28;20443;-82
2022/11/29 02:56:22;;;;;;;38.03;16.97;;;9.40;1.00;;;;;;4947752;28;20475;-81
2022/11/29 02:59:14;;;;;;;33.40;17.70;;;9.40;1.00;;;;;;4953370;28;21131;-81
2022/11/29 03:01:56;;;;;;;36.70;18.63;;;9.40;1.00;;;;;;4954458;28;20856;-81
2022/11/29 03:04:54;;;;;;;37.73;19.20;;;9.40;1.00;;;;;;4954281;28;20540;-84
2022/11/29 03:07:44;;;;;;;39.20;17.93;;;9.40;1.00;;;;;;4953189;28;20476;-84
2022/11/29 03:10:51;;;;;;;37.73;18.50;;;9.40;1.00;;;;;;4953057;28;20447;-82
2022/11/29 03:13:26;;;;;;;46.53;20.47;;;9.40;1.00;;;;;;4956829;28;20436;-84
2022/11/29 03:16:02;;;;;;;41.90;19.13;;;9.40;1.00;;;;;;4955500;28;20452;-83
2022/11/29 03:18:49;;;;;;;42.37;19.17;;;9.40;1.00;;;;;;4958121;28;21091;-83
2022/11/29 03:21:34;;;;;;;41.30;19.57;;;9.40;1.00;;;;;;4957535;28;20444;-84
2022/11/29 03:24:05;;;;;;;41.03;20.43;;;9.50;1.00;;;;;;4952641;29;20926;-84
2022/11/29 03:26:55;;;;;;;42.47;17.90;;;9.50;1.00;;;;;;4957971;28;20492;-84
2022/11/29 03:29:28;;;;;;;37.20;19.67;;;9.50;1.00;;;;;;4955387;28;20839;-84
2022/11/29 03:32:18;;;;;;;37.27;19.50;;;9.50;1.00;;;;;;4957197;28;20464;-83
2022/11/29 03:35:11;;;;;;;30.87;19.57;;;9.50;1.00;;;;;;4956551;28;20448;-81
2022/11/29 03:37:43;;;;;;;40.47;20.13;;;9.50;1.00;;;;;;4958070;28;20448;-85
2022/11/29 03:40:13;;;;;;;40.00;19.90;;;9.60;1.00;;;;;;4952637;28;20440;-83
2022/11/29 03:43:04;;;;;;;37.27;19.57;;;9.60;1.00;;;;;;4959986;28;20619;-83
2022/11/29 03:45:42;;;;;;;38.63;19.93;;;9.60;1.00;;;;;;4954490;28;20463;-84
2022/11/29 03:48:20;;;;;;;48.60;20.73;;;9.60;1.00;;;;;;4956561;28;20979;-83
2022/11/29 03:51:12;;;;;;;42.67;20.47;;;9.60;1.00;;;;;;4948728;28;21148;-84
2022/11/29 03:54:00;;;;;;;50.03;22.97;;;9.60;1.00;;;;;;4953497;28;20468;-83
2022/11/29 03:56:28;;;;;;;51.20;22.40;;;9.60;1.00;;;;;;4955792;28;20500;-83
2022/11/29 03:59:35;;;;;;;46.13;21.40;;;9.60;1.00;;;;;;4952936;29;20815;-83
2022/11/29 04:02:12;;;;;;;52.00;23.70;;;9.70;1.00;;;;;;4937555;28;20518;-84
2022/11/29 04:05:00;;;;;;;46.47;25.27;;;9.70;1.00;;;;;;4956049;28;21058;-83
2022/11/29 04:07:40;;;;;;;42.33;22.20;;;9.70;1.00;;;;;;4953930;28;20440;-83
2022/11/29 04:10:12;;;;;;;63.87;22.63;;;9.70;1.00;;;;;;4957332;28;20452;-84
2022/11/29 04:12:59;;;;;;;45.03;21.70;;;9.70;1.00;;;;;;4952373;28;20798;-84
2022/11/29 04:15:43;;;;;;;45.17;21.57;;;9.70;1.00;;;;;;4953601;28;20535;-84
2022/11/29 04:18:27;;;;;;;55.67;19.93;;;9.70;1.00;;;;;;4955512;28;20444;-83
2022/11/29 04:21:11;;;;;;;41.03;20.47;;;9.70;1.00;;;;;;4955240;28;20444;-83
2022/11/29 04:23:45;;;;;;;41.57;22.97;;;9.70;1.00;;;;;;4952318;28;20501;-83
2022/11/29 04:26:26;;;;;;;46.80;21.57;;;9.70;1.00;;;;;;4955128;28;20463;-84
2022/11/29 04:29:14;;;;;;;36.80;20.70;;;9.70;1.00;;;;;;4953703;28;20474;-83
2022/11/29 04:31:51;;;;;;;51.63;23.20;;;9.70;1.00;;;;;;4912998;28;20887;-83
2022/11/29 04:34:46;;;;;;;52.67;21.90;;;9.70;1.00;;;;;;4954786;28;20448;-83
2022/11/29 04:37:32;;;;;;;39.73;20.10;;;9.70;1.00;;;;;;4952733;28;20424;-84
2022/11/29 04:40:07;;;;;;;44.40;20.63;;;9.70;1.00;;;;;;4955356;28;20462;-83
2022/11/29 04:42:58;;;;;;;42.40;21.00;;;9.70;1.00;;;;;;4956342;28;20436;-84
2022/11/29 04:45:42;;;;;;;46.87;21.03;;;9.70;1.00;;;;;;4956965;28;20464;-84
2022/11/29 04:48:39;;;;;;;37.80;20.40;;;9.70;1.00;;;;;;4957455;29;20481;-81
2022/11/29 04:51:27;;;;;;;38.57;19.57;;;9.70;1.00;;;;;;4971329;28;20452;-83
2022/11/29 04:54:04;;;;;;;43.13;21.63;;;9.70;1.00;;;;;;4964239;28;20428;-82
2022/11/29 04:56:40;;;;;;;44.07;19.87;;;9.70;1.00;;;;;;4959589;28;20452;-82
2022/11/29 04:59:22;;;;;;;46.70;20.23;;;9.70;1.00;;;;;;4948681;28;20950;-81
2022/11/29 05:02:12;;;;;;;36.33;19.93;;;9.70;1.00;;;;;;4950695;28;20436;-82
2022/11/29 05:04:49;;;;;;;40.70;21.10;;;9.70;1.00;;;;;;4954558;28;20463;-81
2022/11/29 05:07:33;;;;;;;46.60;19.63;;;9.70;1.00;;;;;;4953374;29;20970;-82
2022/11/29 05:10:28;;;;;;;40.83;21.67;;;9.70;1.00;;;;;;4949378;28;20437;-83
2022/11/29 05:13:17;;;;;;;36.33;21.10;;;9.70;1.00;;;;;;4951640;29;20520;-85
2022/11/29 05:16:05;;;;;;;44.27;21.10;;;9.70;1.00;;;;;;4952786;28;20845;-81
2022/11/29 05:18:53;;;;;;;39.63;21.03;;;9.70;1.00;;;;;;4949508;28;20440;-83
2022/11/29 05:21:49;;;;;;;46.40;23.40;;;9.60;1.00;;;;;;4949248;28;20444;-82
2022/11/29 05:24:36;;;;;;;50.40;23.50;;;9.60;1.00;;;;;;4950432;28;20517;-83
2022/11/29 05:27:07;;;;;;;57.33;23.80;;;9.60;1.00;;;;;;4951273;29;20459;-82
2022/11/29 05:29:52;;;;;;;52.40;26.13;;;9.60;1.00;;;;;;4951877;28;20904;-83
2022/11/29 05:32:31;;;;;;;65.57;26.67;;;9.60;1.00;;;;;;4936989;28;20436;-81
2022/11/29 05:35:24;;;;;;;65.67;25.10;;;9.60;1.00;;;;;;4952691;28;20484;-83
2022/11/29 05:38:19;;;;;;;66.40;23.93;;;9.60;1.00;;;;;;4954186;28;20436;-82
2022/11/29 05:41:11;;;;;;;52.70;25.07;;;9.60;1.00;;;;;;4951845;28;20444;-81
2022/11/29 05:43:45;;;;;;;51.23;25.30;;;9.60;1.00;;;;;;4951562;28;20436;-82
2022/11/29 05:46:34;;;;;;;58.87;24.30;;;9.60;1.00;;;;;;4954695;28;20487;-81
2022/11/29 05:49:12;;;;;;;67.67;27.13;;;9.60;1.00;;;;;;4956331;28;20542;-83
2022/11/29 05:51:45;;;;;;;74.87;28.40;;;9.70;1.00;;;;;;4954094;28;20531;-83
2022/11/29 05:54:41;;;;;;;58.60;28.70;;;9.70;1.00;;;;;;4954683;28;20536;-82
2022/11/29 05:57:13;;;;;;;57.70;27.90;;;9.70;1.00;;;;;;4950869;29;20463;-82
2022/11/29 05:59:40;;;;;;;76.50;32.00;;;9.70;1.00;;;;;;4949357;28;20476;-83
2022/11/29 06:02:27;;;;;;;60.33;30.17;;;9.70;1.00;;;;;;4937239;29;20539;-82
2022/11/29 06:05:10;;;;;;;77.17;31.60;;;9.70;1.00;;;;;;4954723;28;20495;-81
2022/11/29 06:08:03;;;;;;;77.93;32.80;;;9.70;1.00;;;;;;4953602;28;20468;-81
2022/11/29 06:10:32;;;;;;;72.43;32.17;;;9.70;1.00;;;;;;4954984;28;20438;-82
2022/11/29 06:13:22;;;;;;;66.83;28.43;;;9.70;1.00;;;;;;4950208;28;20444;-82
2022/11/29 06:16:06;;;;;;;59.93;27.50;;;9.70;1.00;;;;;;4954644;28;20455;-82
2022/11/29 06:18:55;;;;;;;72.33;29.47;;;9.70;1.00;;;;;;4951188;28;20443;-83
2022/11/29 06:21:39;;;;;;;64.33;29.67;;;9.70;1.00;;;;;;4952547;28;20530;-82
2022/11/29 06:24:16;;;;;;;71.73;30.50;;;9.70;1.00;;;;;;4951951;28;20471;-82
2022/11/29 06:27:02;;;;;;;60.40;28.03;;;9.70;1.00;;;;;;4954580;29;20436;-84
2022/11/29 06:30:00;;;;;;;63.73;28.30;;;9.70;1.00;;;;;;4961394;28;20468;-83
2022/11/29 06:32:53;;;;;;;54.67;26.47;;;9.70;1.00;;;;;;4928440;28;20528;-84
2022/11/29 06:35:47;;;;;;;59.27;26.03;;;9.70;1.00;;;;;;4952809;28;20471;-85
2022/11/29 06:38:23;;;;;;;61.60;28.27;;;9.70;1.00;;;;;;4954873;28;20536;-82
2022/11/29 06:40:50;;;;;;;63.33;27.97;;;9.80;1.00;;;;;;4953702;28;20970;-84
2022/11/29 06:43:16;;;;;;;65.93;28.43;;;9.70;1.00;;;;;;4959009;28;20531;-84
2022/11/29 06:45:48;;;;;;;58.90;26.33;;;9.70;1.00;;;;;;4956489;28;20456;-85
2022/11/29 06:48:23;;;;;;;59.40;24.63;;;9.70;1.00;;;;;;4957976;28;20567;-84
2022/11/29 06:51:20;;;;;;;57.53;25.27;;;9.80;1.00;;;;;;4954976;28;20460;-82
2022/11/29 06:54:02;;;;;;;63.73;27.17;;;9.80;1.00;;;;;;4936711;29;20436;-83
2022/11/29 06:57:03;;;;;;;60.37;26.97;;;9.80;1.00;;;;;;4954846;28;20555;-83
2022/11/29 06:59:47;;;;;;;63.40;26.87;;;9.80;1.00;;;;;;4895694;29;20462;-82
2022/11/29 07:02:24;;;;;;;56.53;26.23;;;9.80;1.00;;;;;;4953061;28;20463;-82
2022/11/29 07:05:14;;;;;;;58.97;25.87;;;9.80;1.00;;;;;;4955870;28;20468;-84
2022/11/29 07:07:41;;;;;;;63.60;28.10;;;9.80;1.00;;;;;;4953058;29;20547;-84
2022/11/29 07:10:13;;;;;;;55.70;27.23;;;9.90;1.00;;;;;;4954343;28;20528;-82
2022/11/29 07:12:39;;;;;;;60.00;25.50;;;9.90;1.00;;;;;;4956488;28;20436;-83
2022/11/29 07:15:05;;;;;;;62.53;28.50;;;10.00;1.00;;;;;;4959841;28;20464;-84
2022/11/29 07:17:42;;;;;;;75.00;29.43;;;10.00;1.00;;;;;;4952935;29;20200;-84
2022/11/29 07:20:22;;;;;;;56.47;28.30;;;10.10;1.00;;;;;;4947296;29;20436;-84
2022/11/29 07:23:09;;;;;;;60.60;27.83;;;10.10;1.00;;;;;;4942244;29;20444;-82
2022/11/29 07:26:02;;;;;;;54.30;26.33;;;10.20;1.00;;;;;;4961776;28;20550;-84
2022/11/29 07:29:01;;;;;;;72.00;30.27;;;10.20;1.00;;;;;;4959130;29;20853;-83
2022/11/29 07:31:43;;;;;;;65.57;27.67;;;10.20;1.00;;;;;;4962566;29;20436;-83
2022/11/29 07:34:18;;;;;;;50.00;25.97;;;10.20;1.00;;;;;;4955990;28;20448;-83
2022/11/29 07:37:04;;;;;;;54.90;25.70;;;10.20;1.00;;;;;;4951139;29;20463;-81
2022/11/29 07:39:44;;;;;;;66.30;27.67;;;10.20;1.00;;;;;;4959752;29;20936;-84
2022/11/29 07:42:28;;;;;;;;;;;;;;;;;;;;;
2022/11/29 07:45:19;;;;;;;69.90;27.50;;;10.20;1.00;;;;;;4951174;28;20504;-83
2022/11/29 07:47:45;;;;;;;56.67;26.70;;;10.20;1.00;;;;;;4938285;29;20444;-83
2022/11/29 07:50:12;;;;;;;74.10;27.30;;;10.10;1.00;;;;;;4954786;28;20444;-84
2022/11/29 07:52:38;;;;;;;59.03;29.10;;;10.10;1.00;;;;;;4940892;28;20702;-84
2022/11/29 07:55:04;;;;;;;56.33;26.50;;;10.10;1.00;;;;;;4941150;29;20461;-83
2022/11/29 07:57:29;;;;;;;62.33;28.10;;;10.10;1.00;;;;;;4959676;28;20256;-84
2022/11/29 07:59:55;;;;;;;59.40;26.00;;;10.20;1.00;;;;;;4959804;28;20452;-83
2022/11/29 08:02:28;;;;;;;56.80;28.97;;;10.20;1.00;;;;;;4954034;28;20451;-84
2022/11/29 08:04:54;;;;;;;47.33;23.63;;;10.20;1.00;;;;;;4958378;28;20228;-82
2022/11/29 08:07:20;;;;;;;58.53;28.27;;;10.30;1.00;;;;;;4956115;28;20459;-84
2022/11/29 08:09:45;;;;;;;61.10;25.40;;;10.30;1.00;;;;;;4957568;28;20212;-84
2022/11/29 08:12:11;;;;;;;58.87;25.40;;;10.30;1.00;;;;;;4954894;28;20188;-84
2022/11/29 08:14:36;;;;;;;66.40;28.60;;;10.30;1.00;;;;;;4956369;28;20212;-84
2022/11/29 08:17:02;;;;;;;63.30;28.70;;;10.30;1.00;;;;;;4959309;28;20256;-83
2022/11/29 08:19:27;;;;;;;75.83;31.97;;;10.20;1.00;;;;;;4969177;29;20193;-84
2022/11/29 08:21:53;;;;;;;74.03;32.37;;;10.20;1.00;;;;;;4967647;29;20193;-83
2022/11/29 08:24:18;;;;;;;80.37;35.23;;;10.20;1.00;;;;;;4963161;28;20201;-83
2022/11/29 08:26:44;;;;;;;96.73;40.07;;;10.20;1.00;;;;;;4953803;29;20267;-83
2022/11/29 08:29:10;;;;;;;86.63;35.43;;;10.20;1.00;;;;;;4936367;29;20235;-82
2022/11/29 08:31:36;;;;;;;74.90;32.33;;;10.20;1.00;;;;;;4956785;28;20820;-83
2022/11/29 08:34:04;;;;;;;85.57;33.50;;;10.10;1.00;;;;;;4942077;29;20181;-83
2022/11/29 08:36:30;;;;;;;71.03;31.87;;;10.10;1.00;;;;;;4954286;28;20253;-84
2022/11/29 08:38:55;;;;;;;73.87;31.73;;;10.00;1.00;;;;;;4965311;28;20452;-83
2022/11/29 08:41:21;;;;;;;77.33;29.90;;;10.00;1.00;;;;;;4953305;28;20216;-84
2022/11/29 08:43:47;;;;;;;86.57;33.00;;;10.00;1.00;;;;;;4958485;28;20196;-84
2022/11/29 08:46:12;;;;;;;70.97;29.83;;;10.00;1.00;;;;;;4951795;29;20291;-84
2022/11/29 08:48:38;;;;;;;74.77;30.30;;;10.00;1.00;;;;;;4958757;28;20276;-83
2022/11/29 08:51:05;;;;;;;68.90;28.67;;;10.10;1.00;;;;;;4965709;28;20221;-82
2022/11/29 08:53:43;;;;;;;73.83;30.20;;;10.10;1.00;;;;;;4960065;28;20638;-83
2022/11/29 08:56:14;;;;;;;68.77;29.80;;;10.10;1.00;;;;;;4964325;28;20543;-82
2022/11/29 08:58:40;;;;;;;62.70;28.97;;;10.10;1.00;;;;;;4958480;28;20752;-82
2022/11/29 09:01:14;;;;;;;76.73;29.70;;;10.10;1.00;;;;;;4955709;28;20444;-83
2022/11/29 09:03:58;;;;;;;73.50;29.47;;;10.10;1.00;;;;;;4950841;28;20679;-82
2022/11/29 09:06:24;;;;;;;63.10;26.80;;;10.10;1.00;;;;;;4956527;28;20460;-84
2022/11/29 09:08:49;;;;;;;59.27;26.83;;;10.10;1.00;;;;;;4956976;28;20551;-83
2022/11/29 09:11:18;;;;;;;53.40;26.70;;;10.10;1.00;;;;;;4957587;28;20472;-81
2022/11/29 09:13:47;;;;;;;64.03;27.27;;;10.10;1.00;;;;;;4950458;28;20184;-83
2022/11/29 09:16:16;;;;;;;79.80;32.40;;;10.10;1.00;;;;;;4951372;28;20458;-83
2022/11/29 09:18:42;;;;;;;55.87;26.37;;;10.10;1.00;;;;;;4936817;29;20523;-83
2022/11/29 09:21:10;;;;;;;72.47;27.80;;;10.20;1.00;;;;;;4953637;28;21769;-83
2022/11/29 09:23:37;;;;;;;64.73;27.37;;;10.20;1.00;;;;;;4962916;28;20459;-83
2022/11/29 09:26:03;;;;;;;60.07;26.47;;;10.30;1.00;;;;;;4957746;28;20488;-83
2022/11/29 09:28:29;;;;;;;57.23;26.60;;;10.40;1.00;;;;;;4960482;28;20476;-84
2022/11/29 09:30:55;;;;;;;69.53;28.90;;;10.50;1.00;;;;;;4959027;28;20567;-83
2022/11/29 09:33:20;;;;;;;72.70;30.77;;;10.60;1.00;;;;;;4953958;28;20185;-83
2022/11/29 09:35:46;;;;;;;78.67;31.07;;;10.60;1.00;;;;;;4954466;28;20224;-82
2022/11/29 09:38:13;;;;;;;73.50;29.07;;;10.70;1.00;;;;;;4954155;28;20240;-83
2022/11/29 09:40:52;;;;;;;75.00;27.80;;;10.70;1.00;;;;;;4960210;29;20476;-82
2022/11/29 09:43:46;;;;;;;63.20;26.67;;;10.80;1.00;;;;;;4953396;28;20971;-83
2022/11/29 09:46:21;;;;;;;69.67;27.83;;;10.80;1.00;;;;;;4951088;28;20636;-82
2022/11/29 09:49:23;;;;;;;65.30;30.03;;;10.80;1.00;;;;;;4959346;29;20474;-82
2022/11/29 09:52:12;;;;;;;69.63;28.67;;;10.80;1.00;;;;;;4948675;29;20451;-83
2022/11/29 09:55:06;;;;;;;69.67;30.70;;;10.80;1.00;;;;;;4951737;28;20459;-83
2022/11/29 09:57:31;;;;;;;72.97;29.50;;;10.80;1.00;;;;;;4959406;28;20458;-84
2022/11/29 10:00:04;;;;;;;61.13;27.60;;;10.80;1.00;;;;;;4957948;28;20531;-83
2022/11/29 10:02:38;;;;;;;78.40;29.63;;;10.80;1.00;;;;;;4956507;28;20192;-82
2022/11/29 10:05:21;;;;;;;65.93;29.93;;;10.80;1.00;;;;;;4959644;28;20555;-83
2022/11/29 10:07:50;;;;;;;69.40;27.13;;;10.80;1.00;;;;;;4952157;28;20447;-81
2022/11/29 10:10:29;;;;;;;58.50;27.20;;;10.80;1.00;;;;;;4952064;28;20441;-80
2022/11/29 10:13:24;;;;;;;62.00;27.43;;;10.90;1.00;;;;;;4953391;28;20440;-83
2022/11/29 10:15:53;;;;;;;78.00;28.10;;;11.00;1.00;;;;;;4951295;28;20472;-83
2022/11/29 10:18:37;;;;;;;64.73;27.50;;;11.10;99.90;;;;;;4947138;28;20452;-83
2022/11/29 10:21:18;;;;;;;63.90;27.90;;;11.10;99.90;;;;;;4963127;28;20459;-83
2022/11/29 10:24:01;;;;;;;58.10;25.87;;;11.20;99.90;;;;;;4954465;28;20445;-82
2022/11/29 10:26:27;;;;;;;44.70;24.00;;;11.40;99.90;;;;;;4958361;28;20460;-83
2022/11/29 10:28:55;;;;;;;53.00;25.63;;;11.50;99.90;;;;;;4958928;29;20558;-83
2022/11/29 10:31:36;;;;;;;57.80;24.47;;;11.50;99.90;;;;;;4939024;28;20185;-83
2022/11/29 10:34:11;;;;;;;66.50;28.33;;;11.50;99.90;;;;;;4957926;28;20436;-83
2022/11/29 10:36:49;;;;;;;56.63;25.87;;;11.50;99.90;;;;;;4960776;28;20443;-83
2022/11/29 10:39:31;;;;;;;55.53;25.60;;;11.50;99.90;;;;;;4958800;28;20436;-81
2022/11/29 10:42:01;;;;;;;57.23;27.00;;;11.50;99.90;;;;;;4954778;28;20912;-84
2022/11/29 10:44:27;;;;;;;62.30;25.30;;;11.60;99.90;;;;;;4956591;28;20440;-81
2022/11/29 10:46:54;;;;;;;61.47;26.47;;;11.50;99.90;;;;;;4948366;28;20535;-83
2022/11/29 10:49:25;;;;;;;59.40;29.23;;;11.60;99.90;;;;;;4957464;28;20468;-83
2022/11/29 10:51:51;;;;;;;73.83;29.00;;;11.60;99.90;;;;;;4933319;28;20437;-83
2022/11/29 10:54:40;;;;;;;59.13;26.90;;;11.60;99.90;;;;;;4970157;28;20930;-83
2022/11/29 10:57:17;;;;;;;66.13;27.27;;;11.60;84.50;;;;;;4959269;28;20189;-83
2022/11/29 11:00:06;;;;;;;68.07;28.00;;;11.50;29.00;;;;;;4960674;28;20444;-82
2022/11/29 11:02:32;;;;;;;57.97;25.60;;;11.50;11.40;;;;;;4960964;28;20523;-83
2022/11/29 11:04:59;;;;;;;56.03;26.03;;;11.60;28.70;;;;;;4963550;28;20460;-83
2022/11/29 11:07:30;;;;;;;54.93;26.33;;;11.70;1.00;;;;;;4956735;28;20444;-83
2022/11/29 11:09:56;;;;;;;56.57;24.50;;;11.70;1.00;;;;;;4968609;28;20476;-84
2022/11/29 11:12:29;;;;;;;48.10;23.37;;;11.70;1.00;;;;;;4942730;28;20520;-81
2022/11/29 11:15:28;;;;;;;49.87;24.23;;;11.70;1.00;;;;;;4970724;28;20523;-84
2022/11/29 11:18:03;;;;;;;57.47;25.73;;;11.70;99.90;;;;;;4951864;28;20443;-83
2022/11/29 11:20:32;;;;;;;58.83;26.20;;;11.50;99.90;;;;;;4968762;28;20940;-84
2022/11/29 11:23:00;;;;;;;52.57;26.07;;;11.40;1.00;;;;;;4961476;28;20969;-84
2022/11/29 11:25:38;;;;;;;51.57;25.27;;;11.40;1.00;;;;;;4966267;28;20456;-83
2022/11/29 11:28:14;;;;;;;60.37;25.60;;;11.40;1.00;;;;;;4963805;28;20474;-83
2022/11/29 11:30:56;;;;;;;58.50;25.90;;;11.40;1.00;;;;;;4967937;28;20411;-84
2022/11/29 11:33:26;;;;;;;57.17;28.07;;;11.40;1.00;;;;;;4969703;28;20440;-84
2022/11/29 11:36:08;;;;;;;70.67;27.63;;;11.40;1.00;;;;;;4966454;28;20433;-84
2022/11/29 11:38:36;;;;;;;61.03;25.60;;;11.40;1.00;;;;;;4961968;28;20443;-84
2022/11/29 11:41:15;;;;;;;45.23;22.03;;;11.30;28.10;;;;;;4968390;28;20421;-84
2022/11/29 11:43:47;;;;;;;51.23;23.77;;;11.30;60.10;;;;;;4961590;28;20849;-84
2022/11/29 11:46:13;;;;;;;47.30;24.67;;;11.30;23.40;;;;;;4961202;28;20452;-83
2022/11/29 11:48:41;;;;;;;50.07;24.77;;;11.20;2.90;;;;;;4954577;28;20580;-84
2022/11/29 11:51:20;;;;;;;55.43;27.20;;;11.20;1.00;;;;;;4968518;28;20177;-83
2022/11/29 11:53:50;;;;;;;56.33;25.13;;;11.20;39.70;;;;;;4969568;28;21010;-83
2022/11/29 11:56:15;;;;;;;64.97;28.17;;;11.10;73.30;;;;;;4962401;28;20852;-84
2022/11/29 11:58:56;;;;;;;70.03;27.47;;;11.00;99.90;;;;;;4957943;28;20439;-83
2022/11/29 12:01:29;;;;;;;53.23;25.77;;;11.00;99.90;;;;;;4957351;28;20203;-84
2022/11/29 12:03:58;;;;;;;62.90;27.67;;;11.10;99.90;;;;;;4943974;29;20444;-84
2022/11/29 12:06:42;;;;;;;55.53;26.70;;;11.10;99.90;;;;;;4951322;28;20496;-84
2022/11/29 12:09:07;;;;;;;55.87;27.40;;;11.20;99.90;;;;;;4957185;29;20472;-84
2022/11/29 12:11:52;;;;;;;53.83;25.10;;;11.20;23.70;;;;;;4960521;28;20441;-84
2022/11/29 12:14:35;;;;;;;48.87;26.13;;;11.30;1.00;;;;;;4957855;28;20588;-84
2022/11/29 12:17:08;;;;;;;46.13;24.93;;;11.30;1.00;;;;;;4953623;28;20444;-84
2022/11/29 12:19:41;;;;;;;62.60;27.13;;;11.30;1.00;;;;;;4957827;28;20515;-84
2022/11/29 12:22:15;;;;;;;61.33;28.70;;;11.30;1.00;;;;;;4956139;28;20475;-83
2022/11/29 12:24:49;;;;;;;58.23;27.63;;;11.30;1.00;;;;;;4945799;28;20511;-84
2022/11/29 12:27:15;;;;;;;54.13;27.30;;;11.40;1.00;;;;;;4955996;28;20468;-84
2022/11/29 12:29:40;;;;;;;66.63;29.37;;;11.40;1.00;;;;;;4966740;28;21030;-84
2022/11/29 12:32:27;;;;;;;66.10;32.50;;;11.40;1.00;;;;;;4952845;28;20592;-84
2022/11/29 12:35:27;;;;;;;65.07;28.83;;;11.40;1.00;;;;;;4955458;28;20216;-84
2022/11/29 12:38:23;;;;;;;67.30;29.37;;;11.40;1.00;;;;;;4941283;29;20436;-84
2022/11/29 12:41:01;;;;;;;66.23;31.00;;;11.50;1.00;;;;;;4946846;29;20489;-84
2022/11/29 12:43:56;;;;;;;62.20;31.20;;;11.50;1.00;;;;;;4963081;28;20456;-84
2022/11/29 12:46:25;;;;;;;62.13;30.87;;;11.50;1.00;;;;;;4951395;28;20465;-82
2022/11/29 12:49:07;;;;;;;65.30;30.30;;;11.50;1.00;;;;;;4956609;28;20476;-83
2022/11/29 12:51:59;;;;;;;58.87;27.10;;;11.40;1.00;;;;;;4965791;28;20471;-82
2022/11/29 12:54:30;;;;;;;61.73;28.90;;;11.40;1.00;;;;;;4970466;28;20521;-82
2022/11/29 12:57:10;;;;;;;58.77;27.77;;;11.40;1.00;;;;;;4968996;28;20432;-82
2022/11/29 13:00:02;;;;;;;53.83;26.80;;;11.40;1.00;;;;;;4965240;28;20442;-83
2022/11/29 13:02:41;;;;;;;56.17;26.00;;;11.30;1.00;;;;;;4965859;28;20455;-82
2022/11/29 13:05:23;;;;;;;50.83;25.60;;;11.40;1.00;;;;;;4966731;28;20878;-83
2022/11/29 13:07:54;;;;;;;50.17;25.80;;;11.30;99.90;;;;;;4967529;28;20476;-82
2022/11/29 13:10:22;;;;;;;55.33;26.73;;;11.20;99.90;;;;;;4965269;28;20419;-82
2022/11/29 13:12:52;;;;;;;48.70;24.50;;;11.20;1.00;;;;;;4955209;28;20436;-84
2022/11/29 13:15:22;;;;;;;51.70;23.70;;;11.10;1.00;;;;;;4960003;28;20982;-82
2022/11/29 13:18:18;;;;;;;48.10;24.70;;;11.00;1.00;;;;;;4958452;28;20440;-83
2022/11/29 13:20:54;;;;;;;50.87;24.20;;;11.00;1.00;;;;;;4958388;28;20423;-83
2022/11/29 13:23:26;;;;;;;45.13;22.50;;;10.90;1.00;;;;;;4965317;28;20856;-82
2022/11/29 13:25:55;;;;;;;54.23;25.27;;;10.90;1.00;;;;;;4963787;28;20447;-82
2022/11/29 13:28:28;;;;;;;52.37;21.90;;;11.00;41.10;;;;;;4957400;28;20479;-82
2022/11/29 13:30:58;;;;;;;41.03;21.30;;;11.00;19.90;;;;;;4960947;28;20412;-83